This is the latest recevied weather packets stored in our database for station/object JS1SZZ-13. If no packets are shown the sender has not sent any weather packets the latest 10 day(s).
| Time | Temp. | Humidity | Pressure | Rain* | Wind** | Luminosity | Snow |
|---|---|---|---|---|---|---|---|
| 1787450700 | 28.33° C | 66% | 1015.8 hPa | 0 mm | - | - | - |
| 1787449800 | 28.89° C | 65% | 1016 hPa | 0 mm | - | - | - |
| 1787448901 | 28.33° C | 67% | 1016.1 hPa | 0 mm | - | - | - |
| 1787448000 | 27.78° C | 70% | 1016.1 hPa | 0 mm | - | - | - |
| 1787447099 | 26.67° C | 72% | 1016.2 hPa | 0 mm | - | - | - |
| 1787446201 | 26.67° C | 74% | 1016.5 hPa | 0 mm | - | - | - |
| 1787445300 | 25.56° C | 75% | 1016.3 hPa | 0 mm | - | - | - |
| 1787444400 | 25° C | 79% | 1016.4 hPa | 0 mm | - | - | - |
| 1787443499 | 25° C | 80% | 1016.3 hPa | 0 mm | - | - | - |
| 1787442600 | 25.56° C | 79% | 1016.4 hPa | 0 mm | - | - | - |
| 1787442148 | 25.56° C | 77% | 1016.2 hPa | 0 mm | - | - | - |
| 1787440918 | 26.11° C | 75% | 1016.1 hPa | 0 mm | - | - | - |
| 1787440019 | 25.56° C | 77% | 1016.1 hPa | 0 mm | - | - | - |
| 1787439120 | 25.56° C | 76% | 1016 hPa | 0 mm | - | - | - |
| 1787438219 | 25.56° C | 76% | 1016.1 hPa | 0 mm | - | - | - |
| 1787437319 | 25.56° C | 77% | 1016.1 hPa | 0 mm | - | - | - |
| 1787436419 | 25° C | 84% | 1016.1 hPa | 0 mm | - | - | - |
| 1787435518 | 24.44° C | 89% | 1016.2 hPa | 0 mm | - | - | - |
| 1787434620 | 23.89° C | 91% | 1016.1 hPa | 0 mm | - | - | - |
| 1787433719 | 22.78° C | 92% | 1016 hPa | 0 mm | - | - | - |
| 1787432818 | 22.78° C | 92% | 1015.9 hPa | 0 mm | - | - | - |
| 1787431920 | 22.22° C | 93% | 1016 hPa | 0 mm | - | - | - |
| 1787431019 | 22.22° C | 93% | 1015.8 hPa | 0 mm | - | - | - |
| 1787430118 | 22.22° C | 93% | 1015.8 hPa | 0 mm | - | - | - |
| 1787429220 | 22.22° C | 93% | 1015.7 hPa | 0 mm | - | - | - |
* Rain latest hour (hover to see other rain measurements)
** Current wind speed in m/s (hover to see current wind gust speed)